Ana Sayfa
METAR-TAF:

METAR-TAF

Havaalanları :

Mesa, Arizona, Amerika Birleşik Devletleri

Enlem: 33-28N, Boylam: 111-44W, yükseklik: 424 m

Güncel hava durumu gözlemi

Rapor saat 22:54 UTC de 18 dakika önce yapıldı.
Rüzgar batı/güneybatıdan 17 kt ve 22 kt'a kadar ani rüzgarlar
Sıcaklık 27°C
Nem 17%
Basınç 1003 hPa
Görüş mesafesi: 16.1 km
Açık gökyüzü

METAR: KFFZ 212254Z 24017G22KT 10SM CLR 27/00 A2962 RMK AO2 PK WND 25029/2222 SLP010 T02720000

Saat: 16:12 (23:12 UTC)


TAF: eksik

4.000'den fazla havaalanı için hava durumu gözlemleri ve tahminleri (METAR ve TAF raporları).

Kullanılabilir istasyonlar harita üzerinde sarı ve kırmızı noktalarla gösterilir.

İstasyonun adını görmek için fareyi noktanın üzerinde gezdirin.

Sonrasında hava gözlem ve tahminlerini görmek için tıklayın.

Haritayı değiştirmek için: yaklaştırmak için siyah artı işaretli yeşil düğmeye ve uzaklaştırmak için de eksi işaretli düğmeye hızla tıklayın; bitişik haritalar için yeşil okları kullanın.


METAR-TAF: